sensor_id;sensor_type;location;lat;lon;timestamp;temperature;humidity
9157;DHT22;4613;48.392;9.998;2022-12-29T00:02:41;3.70;99.90
9157;DHT22;4613;48.392;9.998;2022-12-29T00:05:30;3.50;99.90
9157;DHT22;4613;48.392;9.998;2022-12-29T00:08:20;3.60;99.90
9157;DHT22;4613;48.392;9.998;2022-12-29T00:11:28;3.70;99.90
9157;DHT22;4613;48.392;9.998;2022-12-29T00:14:17;3.70;99.90
9157;DHT22;4613;48.392;9.998;2022-12-29T00:17:26;3.80;99.90
9157;DHT22;4613;48.392;9.998;2022-12-29T00:20:16;3.70;99.90
9157;DHT22;4613;48.392;9.998;2022-12-29T00:23:24;3.60;99.90
9157;DHT22;4613;48.392;9.998;2022-12-29T00:26:33;3.70;99.90
9157;DHT22;4613;48.392;9.998;2022-12-29T00:29:41;3.70;99.90
9157;DHT22;4613;48.392;9.998;2022-12-29T00:32:51;3.70;99.90
9157;DHT22;4613;48.392;9.998;2022-12-29T00:36:11;3.70;99.90
9157;DHT22;4613;48.392;9.998;2022-12-29T00:39:10;3.90;99.90
9157;DHT22;4613;48.392;9.998;2022-12-29T00:42:20;3.90;99.90
9157;DHT22;4613;48.392;9.998;2022-12-29T00:45:31;4.00;99.90
9157;DHT22;4613;48.392;9.998;2022-12-29T00:48:22;3.90;99.90
9157;DHT22;4613;48.392;9.998;2022-12-29T00:51:30;3.90;99.90
9157;DHT22;4613;48.392;9.998;2022-12-29T00:54:19;4.00;99.90
9157;DHT22;4613;48.392;9.998;2022-12-29T00:57:09;4.00;99.90
9157;DHT22;4613;48.392;9.998;2022-12-29T00:59:59;4.10;99.90
9157;DHT22;4613;48.392;9.998;2022-12-29T01:02:48;4.10;99.90
9157;DHT22;4613;48.392;9.998;2022-12-29T01:05:39;4.10;99.90
9157;DHT22;4613;48.392;9.998;2022-12-29T01:08:28;4.10;99.90
9157;DHT22;4613;48.392;9.998;2022-12-29T01:11:18;4.20;99.90
9157;DHT22;4613;48.392;9.998;2022-12-29T01:14:08;4.00;99.90
9157;DHT22;4613;48.392;9.998;2022-12-29T01:16:58;3.90;99.90
9157;DHT22;4613;48.392;9.998;2022-12-29T01:19:47;4.00;99.90
9157;DHT22;4613;48.392;9.998;2022-12-29T01:22:36;4.00;99.90
9157;DHT22;4613;48.392;9.998;2022-12-29T01:25:26;4.00;99.90
9157;DHT22;4613;48.392;9.998;2022-12-29T01:28:15;3.90;99.90
9157;DHT22;4613;48.392;9.998;2022-12-29T01:31:05;4.00;99.90
9157;DHT22;4613;48.392;9.998;2022-12-29T01:33:55;4.00;99.90
9157;DHT22;4613;48.392;9.998;2022-12-29T01:36:44;4.00;99.90
9157;DHT22;4613;48.392;9.998;2022-12-29T01:39:34;4.00;99.90
9157;DHT22;4613;48.392;9.998;2022-12-29T01:42:24;4.10;99.90
9157;DHT22;4613;48.392;9.998;2022-12-29T01:45:17;4.00;99.90
9157;DHT22;4613;48.392;9.998;2022-12-29T01:48:09;4.00;99.90
9157;DHT22;4613;48.392;9.998;2022-12-29T01:51:07;4.10;99.90
9157;DHT22;4613;48.392;9.998;2022-12-29T01:53:58;4.20;99.90
9157;DHT22;4613;48.392;9.998;2022-12-29T01:56:51;4.20;99.90
9157;DHT22;4613;48.392;9.998;2022-12-29T01:59:48;4.10;99.90
9157;DHT22;4613;48.392;9.998;2022-12-29T02:02:45;4.20;99.90
9157;DHT22;4613;48.392;9.998;2022-12-29T02:06:25;4.30;99.90
9157;DHT22;4613;48.392;9.998;2022-12-29T02:08:56;4.10;99.90
9157;DHT22;4613;48.392;9.998;2022-12-29T02:11:46;4.20;99.90
9157;DHT22;4613;48.392;9.998;2022-12-29T02:14:35;4.20;99.90
9157;DHT22;4613;48.392;9.998;2022-12-29T02:20:46;4.20;99.90
9157;DHT22;4613;48.392;9.998;2022-12-29T02:24:05;4.30;99.90
9157;DHT22;4613;48.392;9.998;2022-12-29T02:43:47;4.50;99.90
9157;DHT22;4613;48.392;9.998;2022-12-29T02:46:34;4.60;99.90
9157;DHT22;4613;48.392;9.998;2022-12-29T02:49:33;4.60;99.90
9157;DHT22;4613;48.392;9.998;2022-12-29T02:52:27;4.60;99.90
9157;DHT22;4613;48.392;9.998;2022-12-29T02:55:19;4.70;99.90
9157;DHT22;4613;48.392;9.998;2022-12-29T02:58:16;4.60;99.90
9157;DHT22;4613;48.392;9.998;2022-12-29T03:01:21;4.60;99.90
9157;DHT22;4613;48.392;9.998;2022-12-29T03:07:57;4.50;99.90
9157;DHT22;4613;48.392;9.998;2022-12-29T03:10:59;4.60;99.90
9157;DHT22;4613;48.392;9.998;2022-12-29T03:13:53;4.80;99.90
9157;DHT22;4613;48.392;9.998;2022-12-29T03:17:11;4.60;99.90
9157;DHT22;4613;48.392;9.998;2022-12-29T03:20:08;4.70;99.90
9157;DHT22;4613;48.392;9.998;2022-12-29T03:23:03;4.80;99.90
9157;DHT22;4613;48.392;9.998;2022-12-29T03:26:02;4.70;99.90
9157;DHT22;4613;48.392;9.998;2022-12-29T03:28:53;4.80;99.90
9157;DHT22;4613;48.392;9.998;2022-12-29T03:31:49;4.80;99.90
9157;DHT22;4613;48.392;9.998;2022-12-29T03:34:39;4.80;99.90
9157;DHT22;4613;48.392;9.998;2022-12-29T03:37:37;4.80;99.90
9157;DHT22;4613;48.392;9.998;2022-12-29T03:40:29;4.80;99.90
9157;DHT22;4613;48.392;9.998;2022-12-29T03:43:21;4.90;99.90
9157;DHT22;4613;48.392;9.998;2022-12-29T03:46:11;4.90;99.90
9157;DHT22;4613;48.392;9.998;2022-12-29T03:49:04;5.00;99.90
9157;DHT22;4613;48.392;9.998;2022-12-29T03:51:53;5.00;99.90
9157;DHT22;4613;48.392;9.998;2022-12-29T03:54:44;5.10;99.90
9157;DHT22;4613;48.392;9.998;2022-12-29T03:57:34;5.10;99.90
9157;DHT22;4613;48.392;9.998;2022-12-29T04:00:28;5.10;99.90
9157;DHT22;4613;48.392;9.998;2022-12-29T04:03:18;5.10;99.90
9157;DHT22;4613;48.392;9.998;2022-12-29T04:06:07;5.10;99.90
9157;DHT22;4613;48.392;9.998;2022-12-29T04:09:03;5.10;99.90
9157;DHT22;4613;48.392;9.998;2022-12-29T04:11:56;5.10;99.90
9157;DHT22;4613;48.392;9.998;2022-12-29T04:14:46;5.20;99.90
9157;DHT22;4613;48.392;9.998;2022-12-29T04:17:35;5.20;99.90
9157;DHT22;4613;48.392;9.998;2022-12-29T04:20:29;5.20;99.90
9157;DHT22;4613;48.392;9.998;2022-12-29T04:23:39;5.20;99.90
9157;DHT22;4613;48.392;9.998;2022-12-29T04:26:31;5.20;99.90
9157;DHT22;4613;48.392;9.998;2022-12-29T04:29:27;5.20;99.90
9157;DHT22;4613;48.392;9.998;2022-12-29T04:32:30;5.20;99.90
9157;DHT22;4613;48.392;9.998;2022-12-29T04:38:47;5.20;99.90
9157;DHT22;4613;48.392;9.998;2022-12-29T04:41:37;5.20;99.90
9157;DHT22;4613;48.392;9.998;2022-12-29T04:44:28;5.20;99.90
9157;DHT22;4613;48.392;9.998;2022-12-29T04:47:17;5.20;99.90
9157;DHT22;4613;48.392;9.998;2022-12-29T04:50:23;5.20;99.90
9157;DHT22;4613;48.392;9.998;2022-12-29T04:53:22;5.10;99.90
9157;DHT22;4613;48.392;9.998;2022-12-29T04:56:17;5.10;99.90
9157;DHT22;4613;48.392;9.998;2022-12-29T04:59:06;5.00;99.90
9157;DHT22;4613;48.392;9.998;2022-12-29T05:01:55;5.00;99.90
9157;DHT22;4613;48.392;9.998;2022-12-29T05:04:45;5.10;99.90
9157;DHT22;4613;48.392;9.998;2022-12-29T05:07:35;5.10;99.90
9157;DHT22;4613;48.392;9.998;2022-12-29T05:10:25;5.10;99.90
9157;DHT22;4613;48.392;9.998;2022-12-29T05:13:16;5.10;99.90
9157;DHT22;4613;48.392;9.998;2022-12-29T05:16:06;5.00;99.90
9157;DHT22;4613;48.392;9.998;2022-12-29T05:18:56;5.00;99.90
9157;DHT22;4613;48.392;9.998;2022-12-29T05:21:45;5.00;99.90
9157;DHT22;4613;48.392;9.998;2022-12-29T05:24:35;4.90;99.90
9157;DHT22;4613;48.392;9.998;2022-12-29T05:27:24;4.90;99.90
9157;DHT22;4613;48.392;9.998;2022-12-29T05:30:27;4.80;99.90
9157;DHT22;4613;48.392;9.998;2022-12-29T05:33:17;4.80;99.90
9157;DHT22;4613;48.392;9.998;2022-12-29T05:36:08;4.80;99.90
9157;DHT22;4613;48.392;9.998;2022-12-29T05:39:03;4.70;99.90
9157;DHT22;4613;48.392;9.998;2022-12-29T05:41:53;4.70;99.90
9157;DHT22;4613;48.392;9.998;2022-12-29T05:44:51;4.70;99.90
9157;DHT22;4613;48.392;9.998;2022-12-29T05:48:06;4.70;99.90
9157;DHT22;4613;48.392;9.998;2022-12-29T05:51:29;4.70;99.90
9157;DHT22;4613;48.392;9.998;2022-12-29T05:54:18;4.70;99.90
9157;DHT22;4613;48.392;9.998;2022-12-29T05:57:08;4.70;99.90
9157;DHT22;4613;48.392;9.998;2022-12-29T06:00:06;4.70;99.90
9157;DHT22;4613;48.392;9.998;2022-12-29T06:03:10;4.70;99.90
9157;DHT22;4613;48.392;9.998;2022-12-29T06:06:00;4.70;99.90
9157;DHT22;4613;48.392;9.998;2022-12-29T06:08:51;4.70;99.90
9157;DHT22;4613;48.392;9.998;2022-12-29T06:11:42;4.60;99.90
9157;DHT22;4613;48.392;9.998;2022-12-29T06:14:35;4.60;99.90
9157;DHT22;4613;48.392;9.998;2022-12-29T06:17:26;4.60;99.90
9157;DHT22;4613;48.392;9.998;2022-12-29T06:20:18;4.60;99.90
9157;DHT22;4613;48.392;9.998;2022-12-29T06:23:08;4.60;99.90
9157;DHT22;4613;48.392;9.998;2022-12-29T06:25:57;4.60;99.90
9157;DHT22;4613;48.392;9.998;2022-12-29T06:28:47;4.70;99.90
9157;DHT22;4613;48.392;9.998;2022-12-29T06:31:37;4.70;99.90
9157;DHT22;4613;48.392;9.998;2022-12-29T06:34:30;4.70;99.90
9157;DHT22;4613;48.392;9.998;2022-12-29T06:37:19;4.70;99.90
9157;DHT22;4613;48.392;9.998;2022-12-29T06:40:20;4.80;99.90
9157;DHT22;4613;48.392;9.998;2022-12-29T06:43:49;4.80;99.90
9157;DHT22;4613;48.392;9.998;2022-12-29T06:46:59;4.80;99.90
9157;DHT22;4613;48.392;9.998;2022-12-29T06:49:49;4.80;99.90
9157;DHT22;4613;48.392;9.998;2022-12-29T06:52:39;4.70;99.90
9157;DHT22;4613;48.392;9.998;2022-12-29T06:55:29;4.70;99.90
9157;DHT22;4613;48.392;9.998;2022-12-29T06:58:19;4.70;99.90
9157;DHT22;4613;48.392;9.998;2022-12-29T07:01:08;4.70;99.90
9157;DHT22;4613;48.392;9.998;2022-12-29T07:03:58;4.70;99.90
9157;DHT22;4613;48.392;9.998;2022-12-29T07:06:47;4.70;99.90
9157;DHT22;4613;48.392;9.998;2022-12-29T07:09:37;4.70;99.90
9157;DHT22;4613;48.392;9.998;2022-12-29T07:12:30;4.70;99.90
9157;DHT22;4613;48.392;9.998;2022-12-29T07:15:20;4.70;99.90
9157;DHT22;4613;48.392;9.998;2022-12-29T07:18:09;4.70;99.90
9157;DHT22;4613;48.392;9.998;2022-12-29T07:21:04;4.70;99.90
9157;DHT22;4613;48.392;9.998;2022-12-29T07:28:06;4.70;99.90
9157;DHT22;4613;48.392;9.998;2022-12-29T07:30:55;4.60;99.90
9157;DHT22;4613;48.392;9.998;2022-12-29T07:33:46;4.70;99.90
9157;DHT22;4613;48.392;9.998;2022-12-29T07:36:35;4.60;99.90
9157;DHT22;4613;48.392;9.998;2022-12-29T07:39:24;4.60;99.90
9157;DHT22;4613;48.392;9.998;2022-12-29T07:42:14;4.70;99.90
9157;DHT22;4613;48.392;9.998;2022-12-29T07:45:09;4.90;99.90
9157;DHT22;4613;48.392;9.998;2022-12-29T07:48:10;5.00;99.90
9157;DHT22;4613;48.392;9.998;2022-12-29T07:51:00;5.00;99.90
9157;DHT22;4613;48.392;9.998;2022-12-29T07:53:49;5.10;99.90
9157;DHT22;4613;48.392;9.998;2022-12-29T07:56:39;5.10;99.90
9157;DHT22;4613;48.392;9.998;2022-12-29T07:59:28;5.00;99.90
9157;DHT22;4613;48.392;9.998;2022-12-29T08:02:18;5.00;99.90
9157;DHT22;4613;48.392;9.998;2022-12-29T08:05:07;5.10;99.90
9157;DHT22;4613;48.392;9.998;2022-12-29T08:07:59;5.00;99.90
9157;DHT22;4613;48.392;9.998;2022-12-29T08:10:48;5.00;99.90
9157;DHT22;4613;48.392;9.998;2022-12-29T08:13:37;5.00;99.90
9157;DHT22;4613;48.392;9.998;2022-12-29T08:16:27;5.00;99.90
9157;DHT22;4613;48.392;9.998;2022-12-29T08:19:16;5.10;99.90
9157;DHT22;4613;48.392;9.998;2022-12-29T08:22:05;5.10;99.90
9157;DHT22;4613;48.392;9.998;2022-12-29T08:24:55;5.10;99.90
9157;DHT22;4613;48.392;9.998;2022-12-29T08:27:44;5.30;99.90
9157;DHT22;4613;48.392;9.998;2022-12-29T08:30:33;5.40;99.90
9157;DHT22;4613;48.392;9.998;2022-12-29T08:33:23;5.50;99.90
9157;DHT22;4613;48.392;9.998;2022-12-29T08:36:13;5.50;99.90
9157;DHT22;4613;48.392;9.998;2022-12-29T08:39:02;5.60;99.90
9157;DHT22;4613;48.392;9.998;2022-12-29T08:41:52;5.70;99.90
9157;DHT22;4613;48.392;9.998;2022-12-29T08:44:41;5.70;99.90
9157;DHT22;4613;48.392;9.998;2022-12-29T08:47:31;5.80;99.90
9157;DHT22;4613;48.392;9.998;2022-12-29T08:50:20;5.80;99.90
9157;DHT22;4613;48.392;9.998;2022-12-29T08:53:09;6.00;99.90
9157;DHT22;4613;48.392;9.998;2022-12-29T08:56:00;6.00;99.90
9157;DHT22;4613;48.392;9.998;2022-12-29T08:58:51;6.00;99.90
9157;DHT22;4613;48.392;9.998;2022-12-29T09:01:41;6.00;99.90
9157;DHT22;4613;48.392;9.998;2022-12-29T09:04:30;6.20;99.90
9157;DHT22;4613;48.392;9.998;2022-12-29T09:07:19;6.50;99.90
9157;DHT22;4613;48.392;9.998;2022-12-29T09:10:09;6.80;99.90
9157;DHT22;4613;48.392;9.998;2022-12-29T09:12:58;7.30;99.90
9157;DHT22;4613;48.392;9.998;2022-12-29T09:15:47;7.50;99.90
9157;DHT22;4613;48.392;9.998;2022-12-29T09:18:37;7.80;99.90
9157;DHT22;4613;48.392;9.998;2022-12-29T09:21:27;7.80;99.90
9157;DHT22;4613;48.392;9.998;2022-12-29T09:24:16;8.80;99.90
9157;DHT22;4613;48.392;9.998;2022-12-29T09:27:05;9.40;99.90
9157;DHT22;4613;48.392;9.998;2022-12-29T09:29:55;9.60;99.90
9157;DHT22;4613;48.392;9.998;2022-12-29T09:32:44;9.10;99.90
9157;DHT22;4613;48.392;9.998;2022-12-29T09:35:33;10.40;99.90
9157;DHT22;4613;48.392;9.998;2022-12-29T09:38:25;11.30;99.90
9157;DHT22;4613;48.392;9.998;2022-12-29T09:41:29;12.10;99.90
9157;DHT22;4613;48.392;9.998;2022-12-29T09:44:28;9.20;99.90
9157;DHT22;4613;48.392;9.998;2022-12-29T09:47:20;8.50;99.90
9157;DHT22;4613;48.392;9.998;2022-12-29T09:50:29;8.20;99.90
9157;DHT22;4613;48.392;9.998;2022-12-29T09:53:26;9.00;99.90
9157;DHT22;4613;48.392;9.998;2022-12-29T09:56:21;11.20;99.90
9157;DHT22;4613;48.392;9.998;2022-12-29T09:59:17;11.20;99.90
9157;DHT22;4613;48.392;9.998;2022-12-29T10:02:31;10.60;99.90
9157;DHT22;4613;48.392;9.998;2022-12-29T10:24:48;9.10;99.90
9157;DHT22;4613;48.392;9.998;2022-12-29T10:27:41;10.50;99.90
9157;DHT22;4613;48.392;9.998;2022-12-29T10:30:33;12.10;99.90
9157;DHT22;4613;48.392;9.998;2022-12-29T10:33:30;10.00;99.90
9157;DHT22;4613;48.392;9.998;2022-12-29T10:36:43;9.70;99.90
9157;DHT22;4613;48.392;9.998;2022-12-29T10:39:42;10.70;99.90
9157;DHT22;4613;48.392;9.998;2022-12-29T10:42:41;12.80;99.90
9157;DHT22;4613;48.392;9.998;2022-12-29T10:45:35;13.80;99.90
9157;DHT22;4613;48.392;9.998;2022-12-29T10:48:32;13.70;99.90
9157;DHT22;4613;48.392;9.998;2022-12-29T10:51:30;12.10;99.90
9157;DHT22;4613;48.392;9.998;2022-12-29T10:54:33;11.60;99.90
9157;DHT22;4613;48.392;9.998;2022-12-29T10:57:34;11.50;99.90
9157;DHT22;4613;48.392;9.998;2022-12-29T11:00:25;11.60;99.90
9157;DHT22;4613;48.392;9.998;2022-12-29T11:06:36;10.50;99.90
9157;DHT22;4613;48.392;9.998;2022-12-29T11:09:32;10.10;99.90
9157;DHT22;4613;48.392;9.998;2022-12-29T11:12:29;10.00;99.90
9157;DHT22;4613;48.392;9.998;2022-12-29T11:15:19;10.00;99.90
9157;DHT22;4613;48.392;9.998;2022-12-29T11:21:36;10.20;99.90
9157;DHT22;4613;48.392;9.998;2022-12-29T11:24:31;10.30;99.90
9157;DHT22;4613;48.392;9.998;2022-12-29T11:27:26;10.30;99.90
9157;DHT22;4613;48.392;9.998;2022-12-29T11:30:28;10.30;99.90
9157;DHT22;4613;48.392;9.998;2022-12-29T11:33:19;10.30;99.90
9157;DHT22;4613;48.392;9.998;2022-12-29T11:36:20;10.30;99.90
9157;DHT22;4613;48.392;9.998;2022-12-29T11:39:56;10.30;99.90
9157;DHT22;4613;48.392;9.998;2022-12-29T11:45:45;10.20;99.90
9157;DHT22;4613;48.392;9.998;2022-12-29T11:48:43;10.50;99.90
9157;DHT22;4613;48.392;9.998;2022-12-29T11:51:46;10.70;99.90
9157;DHT22;4613;48.392;9.998;2022-12-29T11:54:37;10.50;99.90
9157;DHT22;4613;48.392;9.998;2022-12-29T11:57:32;10.40;99.90
9157;DHT22;4613;48.392;9.998;2022-12-29T12:00:24;10.60;99.90
9157;DHT22;4613;48.392;9.998;2022-12-29T12:03:24;10.60;99.90
9157;DHT22;4613;48.392;9.998;2022-12-29T12:06:19;10.50;99.90
9157;DHT22;4613;48.392;9.998;2022-12-29T12:09:23;10.50;99.90
9157;DHT22;4613;48.392;9.998;2022-12-29T12:12:23;10.60;99.90
9157;DHT22;4613;48.392;9.998;2022-12-29T12:15:39;10.70;99.90
9157;DHT22;4613;48.392;9.998;2022-12-29T12:21:40;10.50;99.90
9157;DHT22;4613;48.392;9.998;2022-12-29T12:24:55;10.40;99.90
9157;DHT22;4613;48.392;9.998;2022-12-29T12:27:57;10.30;99.90
9157;DHT22;4613;48.392;9.998;2022-12-29T12:30:52;10.20;99.90
9157;DHT22;4613;48.392;9.998;2022-12-29T12:33:48;10.10;99.90
9157;DHT22;4613;48.392;9.998;2022-12-29T12:43:44;10.10;99.90
9157;DHT22;4613;48.392;9.998;2022-12-29T12:50:19;10.10;99.90
9157;DHT22;4613;48.392;9.998;2022-12-29T12:57:05;10.10;99.90
9157;DHT22;4613;48.392;9.998;2022-12-29T13:00:12;10.10;99.90
9157;DHT22;4613;48.392;9.998;2022-12-29T13:06:37;10.10;99.90
9157;DHT22;4613;48.392;9.998;2022-12-29T13:32:11;10.10;99.90
9157;DHT22;4613;48.392;9.998;2022-12-29T13:39:11;10.10;99.90
9157;DHT22;4613;48.392;9.998;2022-12-29T13:42:07;10.10;99.90
9157;DHT22;4613;48.392;9.998;2022-12-29T13:45:01;10.10;99.90
9157;DHT22;4613;48.392;9.998;2022-12-29T13:48:10;10.00;99.90
9157;DHT22;4613;48.392;9.998;2022-12-29T13:51:07;10.00;99.90
9157;DHT22;4613;48.392;9.998;2022-12-29T13:54:06;10.00;99.90
9157;DHT22;4613;48.392;9.998;2022-12-29T13:57:17;10.00;99.90
9157;DHT22;4613;48.392;9.998;2022-12-29T14:00:18;10.00;99.90
9157;DHT22;4613;48.392;9.998;2022-12-29T14:09:34;10.00;99.90
9157;DHT22;4613;48.392;9.998;2022-12-29T14:12:41;10.10;99.90
9157;DHT22;4613;48.392;9.998;2022-12-29T14:15:38;10.00;99.90
9157;DHT22;4613;48.392;9.998;2022-12-29T14:18:34;10.00;99.90
9157;DHT22;4613;48.392;9.998;2022-12-29T14:21:30;10.10;99.90
9157;DHT22;4613;48.392;9.998;2022-12-29T14:30:54;10.20;99.90
9157;DHT22;4613;48.392;9.998;2022-12-29T14:37:00;10.40;99.90
9157;DHT22;4613;48.392;9.998;2022-12-29T14:40:05;10.30;99.90
9157;DHT22;4613;48.392;9.998;2022-12-29T14:42:58;10.30;99.90
9157;DHT22;4613;48.392;9.998;2022-12-29T14:45:54;10.20;99.90
9157;DHT22;4613;48.392;9.998;2022-12-29T14:48:45;10.20;99.90
9157;DHT22;4613;48.392;9.998;2022-12-29T14:51:35;10.20;99.90
9157;DHT22;4613;48.392;9.998;2022-12-29T14:57:40;10.10;99.90
9157;DHT22;4613;48.392;9.998;2022-12-29T15:00:35;10.00;99.90
9157;DHT22;4613;48.392;9.998;2022-12-29T15:03:46;9.90;99.90
9157;DHT22;4613;48.392;9.998;2022-12-29T15:06:39;9.90;99.90
9157;DHT22;4613;48.392;9.998;2022-12-29T15:09:34;9.80;99.90
9157;DHT22;4613;48.392;9.998;2022-12-29T15:12:39;9.90;99.90
9157;DHT22;4613;48.392;9.998;2022-12-29T15:15:36;9.80;99.90
9157;DHT22;4613;48.392;9.998;2022-12-29T15:18:29;9.70;99.90
9157;DHT22;4613;48.392;9.998;2022-12-29T15:21:27;9.70;99.90
9157;DHT22;4613;48.392;9.998;2022-12-29T15:24:16;9.70;99.90
9157;DHT22;4613;48.392;9.998;2022-12-29T15:27:06;9.70;99.90
9157;DHT22;4613;48.392;9.998;2022-12-29T15:29:58;9.60;99.90
9157;DHT22;4613;48.392;9.998;2022-12-29T15:32:49;9.60;99.90
9157;DHT22;4613;48.392;9.998;2022-12-29T15:35:38;9.50;99.90
9157;DHT22;4613;48.392;9.998;2022-12-29T15:38:29;9.50;99.90
9157;DHT22;4613;48.392;9.998;2022-12-29T15:44:46;9.40;99.90
9157;DHT22;4613;48.392;9.998;2022-12-29T15:47:36;9.40;99.90
9157;DHT22;4613;48.392;9.998;2022-12-29T15:50:29;9.30;99.90
9157;DHT22;4613;48.392;9.998;2022-12-29T15:53:26;9.30;99.90
9157;DHT22;4613;48.392;9.998;2022-12-29T15:56:17;9.30;99.90
9157;DHT22;4613;48.392;9.998;2022-12-29T15:59:26;9.20;99.90
9157;DHT22;4613;48.392;9.998;2022-12-29T16:02:17;9.20;99.90
9157;DHT22;4613;48.392;9.998;2022-12-29T16:05:16;9.10;99.90
9157;DHT22;4613;48.392;9.998;2022-12-29T16:08:41;9.10;99.90
9157;DHT22;4613;48.392;9.998;2022-12-29T16:11:38;9.20;99.90
9157;DHT22;4613;48.392;9.998;2022-12-29T16:14:38;9.20;99.90
9157;DHT22;4613;48.392;9.998;2022-12-29T16:17:33;9.30;99.90
9157;DHT22;4613;48.392;9.998;2022-12-29T16:20:31;9.10;99.90
9157;DHT22;4613;48.392;9.998;2022-12-29T16:23:25;9.10;99.90
9157;DHT22;4613;48.392;9.998;2022-12-29T16:26:19;9.20;99.90
9157;DHT22;4613;48.392;9.998;2022-12-29T16:29:12;9.10;99.90
9157;DHT22;4613;48.392;9.998;2022-12-29T16:32:02;9.10;99.90
9157;DHT22;4613;48.392;9.998;2022-12-29T16:35:12;9.00;99.90
9157;DHT22;4613;48.392;9.998;2022-12-29T16:38:20;8.80;99.90
9157;DHT22;4613;48.392;9.998;2022-12-29T16:41:28;8.80;99.90
9157;DHT22;4613;48.392;9.998;2022-12-29T16:44:29;8.80;99.90
9157;DHT22;4613;48.392;9.998;2022-12-29T16:47:38;8.80;99.90
9157;DHT22;4613;48.392;9.998;2022-12-29T16:50:27;8.70;99.90
9157;DHT22;4613;48.392;9.998;2022-12-29T16:53:29;8.60;99.90
9157;DHT22;4613;48.392;9.998;2022-12-29T16:56:23;8.60;99.90
9157;DHT22;4613;48.392;9.998;2022-12-29T16:59:34;8.60;99.90
9157;DHT22;4613;48.392;9.998;2022-12-29T17:02:26;8.60;99.90
9157;DHT22;4613;48.392;9.998;2022-12-29T17:05:18;8.60;99.90
9157;DHT22;4613;48.392;9.998;2022-12-29T17:08:19;8.60;99.90
9157;DHT22;4613;48.392;9.998;2022-12-29T17:11:32;8.50;99.90
9157;DHT22;4613;48.392;9.998;2022-12-29T17:14:50;8.50;99.90
9157;DHT22;4613;48.392;9.998;2022-12-29T17:17:45;8.40;99.90
9157;DHT22;4613;48.392;9.998;2022-12-29T17:20:36;8.40;99.90
9157;DHT22;4613;48.392;9.998;2022-12-29T17:23:31;8.40;99.90
9157;DHT22;4613;48.392;9.998;2022-12-29T17:26:21;8.30;99.90
9157;DHT22;4613;48.392;9.998;2022-12-29T17:29:38;8.30;99.90
9157;DHT22;4613;48.392;9.998;2022-12-29T17:32:28;8.30;99.90
9157;DHT22;4613;48.392;9.998;2022-12-29T17:35:22;8.30;99.90
9157;DHT22;4613;48.392;9.998;2022-12-29T17:38:25;8.30;99.90
9157;DHT22;4613;48.392;9.998;2022-12-29T17:41:15;8.30;99.90
9157;DHT22;4613;48.392;9.998;2022-12-29T17:44:06;8.20;99.90
9157;DHT22;4613;48.392;9.998;2022-12-29T17:46:56;8.10;99.90
9157;DHT22;4613;48.392;9.998;2022-12-29T17:49:46;8.10;99.90
9157;DHT22;4613;48.392;9.998;2022-12-29T17:52:35;8.10;99.90
9157;DHT22;4613;48.392;9.998;2022-12-29T17:55:25;8.10;99.90
9157;DHT22;4613;48.392;9.998;2022-12-29T17:58:21;8.10;99.90
9157;DHT22;4613;48.392;9.998;2022-12-29T18:01:17;8.10;99.90
9157;DHT22;4613;48.392;9.998;2022-12-29T18:04:18;8.10;99.90
9157;DHT22;4613;48.392;9.998;2022-12-29T18:07:10;8.10;99.90
9157;DHT22;4613;48.392;9.998;2022-12-29T18:10:00;8.10;99.90
9157;DHT22;4613;48.392;9.998;2022-12-29T18:12:51;8.10;99.90
9157;DHT22;4613;48.392;9.998;2022-12-29T18:15:48;8.10;99.90
9157;DHT22;4613;48.392;9.998;2022-12-29T18:18:38;8.10;99.90
9157;DHT22;4613;48.392;9.998;2022-12-29T18:21:31;8.10;99.90
9157;DHT22;4613;48.392;9.998;2022-12-29T18:24:20;8.10;99.90
9157;DHT22;4613;48.392;9.998;2022-12-29T18:27:15;8.10;99.90
9157;DHT22;4613;48.392;9.998;2022-12-29T18:30:06;8.00;99.90
9157;DHT22;4613;48.392;9.998;2022-12-29T18:32:56;8.00;99.90
9157;DHT22;4613;48.392;9.998;2022-12-29T18:35:50;8.00;99.90
9157;DHT22;4613;48.392;9.998;2022-12-29T18:38:40;8.00;99.90
9157;DHT22;4613;48.392;9.998;2022-12-29T18:41:30;8.10;99.90
9157;DHT22;4613;48.392;9.998;2022-12-29T18:44:22;8.10;99.90
9157;DHT22;4613;48.392;9.998;2022-12-29T18:47:15;8.00;99.90
9157;DHT22;4613;48.392;9.998;2022-12-29T18:50:05;8.10;99.90
9157;DHT22;4613;48.392;9.998;2022-12-29T18:52:55;8.10;99.90
9157;DHT22;4613;48.392;9.998;2022-12-29T18:55:45;8.10;99.90
9157;DHT22;4613;48.392;9.998;2022-12-29T18:58:35;8.10;99.90
9157;DHT22;4613;48.392;9.998;2022-12-29T19:01:28;8.10;99.90
9157;DHT22;4613;48.392;9.998;2022-12-29T19:04:19;8.10;99.90
9157;DHT22;4613;48.392;9.998;2022-12-29T19:07:10;8.10;99.90
9157;DHT22;4613;48.392;9.998;2022-12-29T19:10:00;8.10;99.90
9157;DHT22;4613;48.392;9.998;2022-12-29T19:12:50;8.10;99.90
9157;DHT22;4613;48.392;9.998;2022-12-29T19:15:43;8.10;99.90
9157;DHT22;4613;48.392;9.998;2022-12-29T19:18:39;8.10;99.90
9157;DHT22;4613;48.392;9.998;2022-12-29T19:21:32;8.00;99.90
9157;DHT22;4613;48.392;9.998;2022-12-29T19:24:25;8.00;99.90
9157;DHT22;4613;48.392;9.998;2022-12-29T19:27:28;8.10;99.90
9157;DHT22;4613;48.392;9.998;2022-12-29T19:30:20;8.10;99.90
9157;DHT22;4613;48.392;9.998;2022-12-29T19:33:13;8.10;99.90
9157;DHT22;4613;48.392;9.998;2022-12-29T19:36:05;8.10;99.90
9157;DHT22;4613;48.392;9.998;2022-12-29T19:38:58;8.20;99.90
9157;DHT22;4613;48.392;9.998;2022-12-29T19:41:57;8.20;99.90
9157;DHT22;4613;48.392;9.998;2022-12-29T19:44:56;8.20;99.90
9157;DHT22;4613;48.392;9.998;2022-12-29T19:47:57;8.20;99.90
9157;DHT22;4613;48.392;9.998;2022-12-29T19:51:08;8.30;99.90
9157;DHT22;4613;48.392;9.998;2022-12-29T19:54:05;8.30;99.90
9157;DHT22;4613;48.392;9.998;2022-12-29T19:56:54;8.30;99.90
9157;DHT22;4613;48.392;9.998;2022-12-29T19:59:47;8.20;99.90
9157;DHT22;4613;48.392;9.998;2022-12-29T20:02:36;8.20;99.90
9157;DHT22;4613;48.392;9.998;2022-12-29T20:05:33;8.20;99.90
9157;DHT22;4613;48.392;9.998;2022-12-29T20:08:25;8.20;99.90
9157;DHT22;4613;48.392;9.998;2022-12-29T20:11:17;8.20;99.90
9157;DHT22;4613;48.392;9.998;2022-12-29T20:14:06;8.20;99.90
9157;DHT22;4613;48.392;9.998;2022-12-29T20:16:56;8.10;99.90
9157;DHT22;4613;48.392;9.998;2022-12-29T20:19:45;8.20;99.90
9157;DHT22;4613;48.392;9.998;2022-12-29T20:22:35;8.20;99.90
9157;DHT22;4613;48.392;9.998;2022-12-29T20:25:28;8.20;99.90
9157;DHT22;4613;48.392;9.998;2022-12-29T20:28:18;8.20;99.90
9157;DHT22;4613;48.392;9.998;2022-12-29T20:31:15;8.10;99.90
9157;DHT22;4613;48.392;9.998;2022-12-29T20:34:06;8.10;99.90
9157;DHT22;4613;48.392;9.998;2022-12-29T20:36:57;8.20;99.90
9157;DHT22;4613;48.392;9.998;2022-12-29T20:39:47;8.20;99.90
9157;DHT22;4613;48.392;9.998;2022-12-29T20:42:37;8.20;99.90
9157;DHT22;4613;48.392;9.998;2022-12-29T20:45:26;8.20;99.90
9157;DHT22;4613;48.392;9.998;2022-12-29T20:48:16;8.20;99.90
9157;DHT22;4613;48.392;9.998;2022-12-29T20:51:06;8.20;99.90
9157;DHT22;4613;48.392;9.998;2022-12-29T20:53:58;8.20;99.90
9157;DHT22;4613;48.392;9.998;2022-12-29T20:56:48;8.20;99.90
9157;DHT22;4613;48.392;9.998;2022-12-29T20:59:37;8.20;99.90
9157;DHT22;4613;48.392;9.998;2022-12-29T21:02:27;8.10;99.90
9157;DHT22;4613;48.392;9.998;2022-12-29T21:05:18;8.20;99.90
9157;DHT22;4613;48.392;9.998;2022-12-29T21:08:08;8.10;99.90
9157;DHT22;4613;48.392;9.998;2022-12-29T21:11:00;8.10;99.90
9157;DHT22;4613;48.392;9.998;2022-12-29T21:13:49;8.10;99.90
9157;DHT22;4613;48.392;9.998;2022-12-29T21:16:38;8.20;99.90
9157;DHT22;4613;48.392;9.998;2022-12-29T21:19:28;8.10;99.90
9157;DHT22;4613;48.392;9.998;2022-12-29T21:22:17;8.20;99.90
9157;DHT22;4613;48.392;9.998;2022-12-29T21:25:07;8.10;99.90
9157;DHT22;4613;48.392;9.998;2022-12-29T21:27:57;8.20;99.90